sensor_id;sensor_type;location;lat;lon;timestamp;P1;durP1;ratioP1;P2;durP2;ratioP2
19312;SDS011;9791;50.820;4.406;2022-09-29T00:01:55;7.63;;;4.03;;
19312;SDS011;9791;50.820;4.406;2022-09-29T00:04:21;9.90;;;3.95;;
19312;SDS011;9791;50.820;4.406;2022-09-29T00:06:47;7.72;;;4.03;;
19312;SDS011;9791;50.820;4.406;2022-09-29T00:09:14;10.20;;;4.40;;
19312;SDS011;9791;50.820;4.406;2022-09-29T00:11:40;8.18;;;4.57;;
19312;SDS011;9791;50.820;4.406;2022-09-29T00:14:07;6.93;;;4.30;;
19312;SDS011;9791;50.820;4.406;2022-09-29T00:16:33;11.55;;;4.72;;
19312;SDS011;9791;50.820;4.406;2022-09-29T00:18:59;8.80;;;5.00;;
19312;SDS011;9791;50.820;4.406;2022-09-29T00:21:25;10.98;;;4.25;;
19312;SDS011;9791;50.820;4.406;2022-09-29T00:23:51;8.23;;;4.63;;
19312;SDS011;9791;50.820;4.406;2022-09-29T00:26:21;7.63;;;4.90;;
19312;SDS011;9791;50.820;4.406;2022-09-29T00:28:48;11.38;;;4.32;;
19312;SDS011;9791;50.820;4.406;2022-09-29T00:31:17;10.50;;;4.70;;
19312;SDS011;9791;50.820;4.406;2022-09-29T00:33:43;8.13;;;4.75;;
19312;SDS011;9791;50.820;4.406;2022-09-29T00:36:13;8.65;;;4.40;;
19312;SDS011;9791;50.820;4.406;2022-09-29T00:38:39;10.43;;;5.07;;
19312;SDS011;9791;50.820;4.406;2022-09-29T00:41:06;9.15;;;4.72;;
19312;SDS011;9791;50.820;4.406;2022-09-29T00:46:14;8.30;;;4.20;;
19312;SDS011;9791;50.820;4.406;2022-09-29T00:48:41;8.82;;;5.00;;
19312;SDS011;9791;50.820;4.406;2022-09-29T00:51:08;10.95;;;5.50;;
19312;SDS011;9791;50.820;4.406;2022-09-29T00:53:34;9.35;;;5.22;;
19312;SDS011;9791;50.820;4.406;2022-09-29T00:56:02;14.70;;;5.20;;
19312;SDS011;9791;50.820;4.406;2022-09-29T00:58:41;10.85;;;4.78;;
19312;SDS011;9791;50.820;4.406;2022-09-29T01:01:10;8.00;;;4.43;;
19312;SDS011;9791;50.820;4.406;2022-09-29T01:03:37;8.68;;;4.97;;
19312;SDS011;9791;50.820;4.406;2022-09-29T01:06:05;8.65;;;4.72;;
19312;SDS011;9791;50.820;4.406;2022-09-29T01:08:38;10.57;;;5.07;;
19312;SDS011;9791;50.820;4.406;2022-09-29T01:11:07;10.82;;;5.07;;
19312;SDS011;9791;50.820;4.406;2022-09-29T01:13:34;9.32;;;4.30;;
19312;SDS011;9791;50.820;4.406;2022-09-29T01:16:00;8.98;;;5.45;;
19312;SDS011;9791;50.820;4.406;2022-09-29T01:18:26;9.73;;;5.10;;
19312;SDS011;9791;50.820;4.406;2022-09-29T01:21:00;9.75;;;5.03;;
19312;SDS011;9791;50.820;4.406;2022-09-29T01:26:13;12.95;;;4.65;;
19312;SDS011;9791;50.820;4.406;2022-09-29T01:28:50;8.90;;;4.40;;
19312;SDS011;9791;50.820;4.406;2022-09-29T01:34:08;11.15;;;4.90;;
19312;SDS011;9791;50.820;4.406;2022-09-29T01:36:54;8.10;;;4.30;;
19312;SDS011;9791;50.820;4.406;2022-09-29T01:41:59;13.40;;;5.65;;
19312;SDS011;9791;50.820;4.406;2022-09-29T01:46:58;7.93;;;4.28;;
19312;SDS011;9791;50.820;4.406;2022-09-29T01:49:26;10.13;;;4.57;;
19312;SDS011;9791;50.820;4.406;2022-09-29T01:54:22;11.55;;;5.00;;
19312;SDS011;9791;50.820;4.406;2022-09-29T01:56:55;7.80;;;4.65;;
19312;SDS011;9791;50.820;4.406;2022-09-29T01:59:25;7.30;;;4.53;;
19312;SDS011;9791;50.820;4.406;2022-09-29T02:01:53;7.97;;;4.30;;
19312;SDS011;9791;50.820;4.406;2022-09-29T02:04:24;7.88;;;4.75;;
19312;SDS011;9791;50.820;4.406;2022-09-29T02:06:53;11.60;;;4.95;;
19312;SDS011;9791;50.820;4.406;2022-09-29T02:09:25;9.05;;;4.68;;
19312;SDS011;9791;50.820;4.406;2022-09-29T02:11:53;9.65;;;4.50;;
19312;SDS011;9791;50.820;4.406;2022-09-29T02:14:24;11.35;;;4.90;;
19312;SDS011;9791;50.820;4.406;2022-09-29T02:16:57;11.48;;;5.05;;
19312;SDS011;9791;50.820;4.406;2022-09-29T02:19:25;8.55;;;4.72;;
19312;SDS011;9791;50.820;4.406;2022-09-29T02:21:54;11.63;;;5.60;;
19312;SDS011;9791;50.820;4.406;2022-09-29T02:24:20;7.22;;;4.53;;
19312;SDS011;9791;50.820;4.406;2022-09-29T02:26:47;10.77;;;4.53;;
19312;SDS011;9791;50.820;4.406;2022-09-29T02:29:13;9.23;;;5.40;;
19312;SDS011;9791;50.820;4.406;2022-09-29T02:31:40;10.00;;;4.70;;
19312;SDS011;9791;50.820;4.406;2022-09-29T02:34:07;6.43;;;4.20;;
19312;SDS011;9791;50.820;4.406;2022-09-29T02:41:44;8.73;;;5.30;;
19312;SDS011;9791;50.820;4.406;2022-09-29T02:52:57;8.15;;;4.20;;
19312;SDS011;9791;50.820;4.406;2022-09-29T02:54:59;6.70;;;4.10;;
19312;SDS011;9791;50.820;4.406;2022-09-29T03:00:08;7.07;;;4.22;;
19312;SDS011;9791;50.820;4.406;2022-09-29T03:02:36;8.00;;;4.65;;
19312;SDS011;9791;50.820;4.406;2022-09-29T03:05:09;8.73;;;4.13;;
19312;SDS011;9791;50.820;4.406;2022-09-29T03:07:36;7.57;;;4.20;;
19312;SDS011;9791;50.820;4.406;2022-09-29T03:10:03;7.40;;;4.13;;
19312;SDS011;9791;50.820;4.406;2022-09-29T03:12:30;7.43;;;4.18;;
19312;SDS011;9791;50.820;4.406;2022-09-29T03:14:56;8.60;;;4.47;;
19312;SDS011;9791;50.820;4.406;2022-09-29T03:17:22;11.02;;;4.97;;
19312;SDS011;9791;50.820;4.406;2022-09-29T03:19:48;11.38;;;4.20;;
19312;SDS011;9791;50.820;4.406;2022-09-29T03:22:14;10.30;;;4.78;;
19312;SDS011;9791;50.820;4.406;2022-09-29T03:24:40;7.18;;;3.88;;
19312;SDS011;9791;50.820;4.406;2022-09-29T03:27:06;8.35;;;4.03;;
19312;SDS011;9791;50.820;4.406;2022-09-29T03:29:34;10.23;;;4.85;;
19312;SDS011;9791;50.820;4.406;2022-09-29T03:32:00;8.90;;;4.13;;
19312;SDS011;9791;50.820;4.406;2022-09-29T03:34:26;9.13;;;3.80;;
19312;SDS011;9791;50.820;4.406;2022-09-29T03:36:52;9.82;;;4.55;;
19312;SDS011;9791;50.820;4.406;2022-09-29T03:39:18;7.10;;;3.95;;
19312;SDS011;9791;50.820;4.406;2022-09-29T03:41:44;8.52;;;4.78;;
19312;SDS011;9791;50.820;4.406;2022-09-29T03:44:11;10.32;;;4.45;;
19312;SDS011;9791;50.820;4.406;2022-09-29T03:46:37;9.40;;;4.53;;
19312;SDS011;9791;50.820;4.406;2022-09-29T03:49:03;11.82;;;4.32;;
19312;SDS011;9791;50.820;4.406;2022-09-29T03:51:29;8.63;;;4.72;;
19312;SDS011;9791;50.820;4.406;2022-09-29T03:53:55;7.93;;;4.00;;
19312;SDS011;9791;50.820;4.406;2022-09-29T03:56:21;8.50;;;4.45;;
19312;SDS011;9791;50.820;4.406;2022-09-29T03:58:47;9.60;;;4.35;;
19312;SDS011;9791;50.820;4.406;2022-09-29T04:01:13;10.23;;;4.38;;
19312;SDS011;9791;50.820;4.406;2022-09-29T04:03:39;9.38;;;4.57;;
19312;SDS011;9791;50.820;4.406;2022-09-29T04:06:05;9.27;;;4.47;;
19312;SDS011;9791;50.820;4.406;2022-09-29T04:08:31;10.50;;;4.55;;
19312;SDS011;9791;50.820;4.406;2022-09-29T04:11:00;10.55;;;5.10;;
19312;SDS011;9791;50.820;4.406;2022-09-29T04:13:25;8.10;;;4.57;;
19312;SDS011;9791;50.820;4.406;2022-09-29T04:15:52;7.00;;;3.63;;
19312;SDS011;9791;50.820;4.406;2022-09-29T04:18:21;8.15;;;4.07;;
19312;SDS011;9791;50.820;4.406;2022-09-29T04:20:48;8.57;;;3.90;;
19312;SDS011;9791;50.820;4.406;2022-09-29T04:23:14;8.63;;;3.80;;
19312;SDS011;9791;50.820;4.406;2022-09-29T04:25:40;10.23;;;4.30;;
19312;SDS011;9791;50.820;4.406;2022-09-29T04:28:06;11.38;;;4.30;;
19312;SDS011;9791;50.820;4.406;2022-09-29T04:30:32;10.95;;;4.10;;
19312;SDS011;9791;50.820;4.406;2022-09-29T04:32:58;7.00;;;3.97;;
19312;SDS011;9791;50.820;4.406;2022-09-29T04:35:24;7.82;;;4.07;;
19312;SDS011;9791;50.820;4.406;2022-09-29T04:37:53;8.40;;;4.10;;
19312;SDS011;9791;50.820;4.406;2022-09-29T04:40:19;10.55;;;4.28;;
19312;SDS011;9791;50.820;4.406;2022-09-29T04:42:45;9.35;;;3.92;;
19312;SDS011;9791;50.820;4.406;2022-09-29T04:45:11;8.32;;;4.38;;
19312;SDS011;9791;50.820;4.406;2022-09-29T04:47:37;9.93;;;4.20;;
19312;SDS011;9791;50.820;4.406;2022-09-29T04:50:03;9.93;;;4.55;;
19312;SDS011;9791;50.820;4.406;2022-09-29T04:52:29;8.05;;;4.20;;
19312;SDS011;9791;50.820;4.406;2022-09-29T04:54:55;9.48;;;4.43;;
19312;SDS011;9791;50.820;4.406;2022-09-29T04:57:21;8.50;;;3.92;;
19312;SDS011;9791;50.820;4.406;2022-09-29T04:59:47;11.55;;;5.05;;
19312;SDS011;9791;50.820;4.406;2022-09-29T05:02:15;9.10;;;4.43;;
19312;SDS011;9791;50.820;4.406;2022-09-29T05:04:41;8.60;;;4.35;;
19312;SDS011;9791;50.820;4.406;2022-09-29T05:07:07;10.10;;;4.38;;
19312;SDS011;9791;50.820;4.406;2022-09-29T05:09:33;9.00;;;5.05;;
19312;SDS011;9791;50.820;4.406;2022-09-29T05:11:59;9.48;;;4.60;;
19312;SDS011;9791;50.820;4.406;2022-09-29T05:14:26;8.98;;;4.70;;
19312;SDS011;9791;50.820;4.406;2022-09-29T05:16:55;8.40;;;4.68;;
19312;SDS011;9791;50.820;4.406;2022-09-29T05:19:21;9.45;;;4.80;;
19312;SDS011;9791;50.820;4.406;2022-09-29T05:21:47;10.32;;;4.80;;
19312;SDS011;9791;50.820;4.406;2022-09-29T05:24:13;6.88;;;4.25;;
19312;SDS011;9791;50.820;4.406;2022-09-29T05:26:39;7.68;;;4.30;;
19312;SDS011;9791;50.820;4.406;2022-09-29T05:29:05;11.55;;;4.45;;
19312;SDS011;9791;50.820;4.406;2022-09-29T05:31:31;8.93;;;4.82;;
19312;SDS011;9791;50.820;4.406;2022-09-29T05:33:57;9.65;;;3.60;;
19312;SDS011;9791;50.820;4.406;2022-09-29T05:36:23;9.98;;;4.53;;
19312;SDS011;9791;50.820;4.406;2022-09-29T05:38:49;11.98;;;8.02;;
19312;SDS011;9791;50.820;4.406;2022-09-29T05:41:16;9.25;;;4.85;;
19312;SDS011;9791;50.820;4.406;2022-09-29T05:43:48;10.07;;;4.55;;
19312;SDS011;9791;50.820;4.406;2022-09-29T05:46:14;9.50;;;4.72;;
19312;SDS011;9791;50.820;4.406;2022-09-29T05:48:41;6.78;;;3.70;;
19312;SDS011;9791;50.820;4.406;2022-09-29T05:51:17;11.18;;;4.78;;
19312;SDS011;9791;50.820;4.406;2022-09-29T05:53:44;8.07;;;4.47;;
19312;SDS011;9791;50.820;4.406;2022-09-29T05:56:11;7.82;;;4.47;;
19312;SDS011;9791;50.820;4.406;2022-09-29T05:58:38;8.32;;;4.80;;
19312;SDS011;9791;50.820;4.406;2022-09-29T06:01:05;8.50;;;4.72;;
19312;SDS011;9791;50.820;4.406;2022-09-29T06:03:32;10.30;;;4.60;;
19312;SDS011;9791;50.820;4.406;2022-09-29T06:06:02;9.00;;;4.18;;
19312;SDS011;9791;50.820;4.406;2022-09-29T06:08:28;8.27;;;4.25;;
19312;SDS011;9791;50.820;4.406;2022-09-29T06:11:00;9.88;;;4.63;;
19312;SDS011;9791;50.820;4.406;2022-09-29T06:13:26;8.80;;;5.20;;
19312;SDS011;9791;50.820;4.406;2022-09-29T06:15:52;10.95;;;4.53;;
19312;SDS011;9791;50.820;4.406;2022-09-29T06:18:18;9.38;;;4.13;;
19312;SDS011;9791;50.820;4.406;2022-09-29T06:20:44;8.25;;;4.53;;
19312;SDS011;9791;50.820;4.406;2022-09-29T06:23:11;8.75;;;4.68;;
19312;SDS011;9791;50.820;4.406;2022-09-29T06:25:37;10.02;;;5.38;;
19312;SDS011;9791;50.820;4.406;2022-09-29T06:28:03;9.68;;;4.93;;
19312;SDS011;9791;50.820;4.406;2022-09-29T06:30:29;12.55;;;5.50;;
19312;SDS011;9791;50.820;4.406;2022-09-29T06:32:55;8.73;;;4.32;;
19312;SDS011;9791;50.820;4.406;2022-09-29T06:35:21;11.02;;;4.63;;
19312;SDS011;9791;50.820;4.406;2022-09-29T06:38:06;11.63;;;4.78;;
19312;SDS011;9791;50.820;4.406;2022-09-29T06:40:32;7.32;;;4.57;;
19312;SDS011;9791;50.820;4.406;2022-09-29T06:42:58;7.70;;;4.60;;
19312;SDS011;9791;50.820;4.406;2022-09-29T06:45:24;7.10;;;4.15;;
19312;SDS011;9791;50.820;4.406;2022-09-29T06:47:56;8.35;;;4.80;;
19312;SDS011;9791;50.820;4.406;2022-09-29T06:50:22;9.63;;;4.88;;
19312;SDS011;9791;50.820;4.406;2022-09-29T06:52:48;9.70;;;4.30;;
19312;SDS011;9791;50.820;4.406;2022-09-29T06:55:14;7.68;;;3.88;;
19312;SDS011;9791;50.820;4.406;2022-09-29T06:57:40;8.05;;;4.25;;
19312;SDS011;9791;50.820;4.406;2022-09-29T07:00:06;11.45;;;3.88;;
19312;SDS011;9791;50.820;4.406;2022-09-29T07:02:32;13.63;;;5.25;;
19312;SDS011;9791;50.820;4.406;2022-09-29T07:04:58;9.70;;;4.45;;
19312;SDS011;9791;50.820;4.406;2022-09-29T07:07:24;10.30;;;3.80;;
19312;SDS011;9791;50.820;4.406;2022-09-29T07:09:50;9.63;;;3.85;;
19312;SDS011;9791;50.820;4.406;2022-09-29T07:12:16;9.63;;;3.88;;
19312;SDS011;9791;50.820;4.406;2022-09-29T07:14:42;9.35;;;4.47;;
19312;SDS011;9791;50.820;4.406;2022-09-29T07:17:08;9.77;;;4.47;;
19312;SDS011;9791;50.820;4.406;2022-09-29T07:19:37;7.80;;;3.70;;
19312;SDS011;9791;50.820;4.406;2022-09-29T07:22:03;7.78;;;3.63;;
19312;SDS011;9791;50.820;4.406;2022-09-29T07:24:29;12.25;;;4.22;;
19312;SDS011;9791;50.820;4.406;2022-09-29T07:26:55;7.43;;;3.58;;
19312;SDS011;9791;50.820;4.406;2022-09-29T07:29:21;8.23;;;3.85;;
19312;SDS011;9791;50.820;4.406;2022-09-29T07:31:47;8.07;;;3.50;;
19312;SDS011;9791;50.820;4.406;2022-09-29T07:34:16;6.60;;;3.88;;
19312;SDS011;9791;50.820;4.406;2022-09-29T07:36:42;8.52;;;4.05;;
19312;SDS011;9791;50.820;4.406;2022-09-29T07:39:08;7.32;;;3.20;;
19312;SDS011;9791;50.820;4.406;2022-09-29T07:41:34;8.88;;;3.35;;
19312;SDS011;9791;50.820;4.406;2022-09-29T07:44:00;7.95;;;3.40;;
19312;SDS011;9791;50.820;4.406;2022-09-29T07:46:26;8.90;;;3.03;;
19312;SDS011;9791;50.820;4.406;2022-09-29T07:48:52;10.77;;;3.50;;
19312;SDS011;9791;50.820;4.406;2022-09-29T07:51:19;9.70;;;3.22;;
19312;SDS011;9791;50.820;4.406;2022-09-29T07:53:45;6.97;;;3.35;;
19312;SDS011;9791;50.820;4.406;2022-09-29T07:56:13;6.35;;;3.40;;
19312;SDS011;9791;50.820;4.406;2022-09-29T07:58:39;8.35;;;3.58;;
19312;SDS011;9791;50.820;4.406;2022-09-29T08:01:07;9.40;;;4.00;;
19312;SDS011;9791;50.820;4.406;2022-09-29T08:03:36;7.43;;;3.10;;
19312;SDS011;9791;50.820;4.406;2022-09-29T08:06:03;6.93;;;3.67;;
19312;SDS011;9791;50.820;4.406;2022-09-29T08:08:29;8.73;;;3.13;;
19312;SDS011;9791;50.820;4.406;2022-09-29T08:11:02;13.90;;;3.72;;
19312;SDS011;9791;50.820;4.406;2022-09-29T08:13:29;9.50;;;3.67;;
19312;SDS011;9791;50.820;4.406;2022-09-29T08:15:59;12.32;;;3.88;;
19312;SDS011;9791;50.820;4.406;2022-09-29T08:18:27;10.07;;;3.67;;
19312;SDS011;9791;50.820;4.406;2022-09-29T08:20:54;12.35;;;4.03;;
19312;SDS011;9791;50.820;4.406;2022-09-29T08:23:20;6.63;;;3.60;;
19312;SDS011;9791;50.820;4.406;2022-09-29T08:25:47;8.15;;;3.47;;
19312;SDS011;9791;50.820;4.406;2022-09-29T08:28:13;7.68;;;3.28;;
19312;SDS011;9791;50.820;4.406;2022-09-29T08:30:39;9.63;;;3.58;;
19312;SDS011;9791;50.820;4.406;2022-09-29T08:33:05;10.73;;;3.53;;
19312;SDS011;9791;50.820;4.406;2022-09-29T08:35:36;9.60;;;3.55;;
19312;SDS011;9791;50.820;4.406;2022-09-29T08:38:02;12.02;;;4.47;;
19312;SDS011;9791;50.820;4.406;2022-09-29T08:40:29;10.30;;;3.55;;
19312;SDS011;9791;50.820;4.406;2022-09-29T08:45:27;10.43;;;3.55;;
19312;SDS011;9791;50.820;4.406;2022-09-29T08:47:55;7.38;;;3.35;;
19312;SDS011;9791;50.820;4.406;2022-09-29T08:50:27;8.10;;;3.28;;
19312;SDS011;9791;50.820;4.406;2022-09-29T08:52:57;7.13;;;3.08;;
19312;SDS011;9791;50.820;4.406;2022-09-29T08:55:30;8.15;;;4.00;;
19312;SDS011;9791;50.820;4.406;2022-09-29T08:57:59;6.13;;;2.58;;
19312;SDS011;9791;50.820;4.406;2022-09-29T09:00:38;7.78;;;3.00;;
19312;SDS011;9791;50.820;4.406;2022-09-29T09:08:44;5.97;;;2.72;;
19312;SDS011;9791;50.820;4.406;2022-09-29T09:17:10;5.55;;;2.83;;
19312;SDS011;9791;50.820;4.406;2022-09-29T09:22:13;7.57;;;2.92;;
19312;SDS011;9791;50.820;4.406;2022-09-29T09:27:36;4.82;;;2.03;;
19312;SDS011;9791;50.820;4.406;2022-09-29T09:30:11;5.68;;;2.30;;
19312;SDS011;9791;50.820;4.406;2022-09-29T09:32:39;6.88;;;2.35;;
19312;SDS011;9791;50.820;4.406;2022-09-29T09:38:00;4.97;;;2.30;;
19312;SDS011;9791;50.820;4.406;2022-09-29T09:40:30;5.85;;;2.38;;
19312;SDS011;9791;50.820;4.406;2022-09-29T09:43:05;4.72;;;2.25;;
19312;SDS011;9791;50.820;4.406;2022-09-29T09:45:35;5.55;;;2.20;;
19312;SDS011;9791;50.820;4.406;2022-09-29T09:48:12;4.63;;;2.17;;
19312;SDS011;9791;50.820;4.406;2022-09-29T09:50:41;6.68;;;2.45;;
19312;SDS011;9791;50.820;4.406;2022-09-29T09:53:11;5.40;;;2.28;;
19312;SDS011;9791;50.820;4.406;2022-09-29T09:55:39;4.47;;;2.15;;
19312;SDS011;9791;50.820;4.406;2022-09-29T10:00:56;4.93;;;2.13;;
19312;SDS011;9791;50.820;4.406;2022-09-29T10:03:22;5.00;;;1.80;;
19312;SDS011;9791;50.820;4.406;2022-09-29T10:05:49;5.15;;;2.13;;
19312;SDS011;9791;50.820;4.406;2022-09-29T10:08:24;5.50;;;2.40;;
19312;SDS011;9791;50.820;4.406;2022-09-29T10:10:51;4.78;;;2.20;;
19312;SDS011;9791;50.820;4.406;2022-09-29T10:13:17;4.70;;;1.90;;
19312;SDS011;9791;50.820;4.406;2022-09-29T10:15:52;5.30;;;2.15;;
19312;SDS011;9791;50.820;4.406;2022-09-29T10:18:24;7.32;;;2.35;;
19312;SDS011;9791;50.820;4.406;2022-09-29T10:20:51;5.97;;;2.65;;
19312;SDS011;9791;50.820;4.406;2022-09-29T10:23:18;6.35;;;1.85;;
19312;SDS011;9791;50.820;4.406;2022-09-29T10:25:51;5.32;;;2.17;;
19312;SDS011;9791;50.820;4.406;2022-09-29T10:28:19;6.97;;;2.13;;
19312;SDS011;9791;50.820;4.406;2022-09-29T10:30:46;3.50;;;1.63;;
19312;SDS011;9791;50.820;4.406;2022-09-29T10:33:13;3.35;;;1.40;;
19312;SDS011;9791;50.820;4.406;2022-09-29T10:35:41;5.13;;;1.70;;
19312;SDS011;9791;50.820;4.406;2022-09-29T10:38:23;3.33;;;1.02;;
19312;SDS011;9791;50.820;4.406;2022-09-29T10:40:56;4.35;;;1.38;;
19312;SDS011;9791;50.820;4.406;2022-09-29T10:43:30;2.83;;;0.90;;
19312;SDS011;9791;50.820;4.406;2022-09-29T10:45:57;2.63;;;1.00;;
19312;SDS011;9791;50.820;4.406;2022-09-29T10:48:24;3.17;;;1.20;;
19312;SDS011;9791;50.820;4.406;2022-09-29T10:53:23;3.70;;;0.77;;
19312;SDS011;9791;50.820;4.406;2022-09-29T10:55:53;3.22;;;1.15;;
19312;SDS011;9791;50.820;4.406;2022-09-29T10:58:30;2.17;;;0.90;;
19312;SDS011;9791;50.820;4.406;2022-09-29T11:01:03;4.93;;;1.30;;
19312;SDS011;9791;50.820;4.406;2022-09-29T11:03:31;4.13;;;1.20;;
19312;SDS011;9791;50.820;4.406;2022-09-29T11:05:58;5.65;;;1.45;;
19312;SDS011;9791;50.820;4.406;2022-09-29T11:08:26;2.58;;;1.02;;
19312;SDS011;9791;50.820;4.406;2022-09-29T11:11:05;3.47;;;1.10;;
19312;SDS011;9791;50.820;4.406;2022-09-29T11:16:03;2.65;;;0.88;;
19312;SDS011;9791;50.820;4.406;2022-09-29T11:18:34;3.50;;;0.80;;
19312;SDS011;9791;50.820;4.406;2022-09-29T11:23:34;4.18;;;1.17;;
19312;SDS011;9791;50.820;4.406;2022-09-29T11:26:14;8.48;;;1.10;;
19312;SDS011;9791;50.820;4.406;2022-09-29T11:28:52;4.63;;;1.23;;
19312;SDS011;9791;50.820;4.406;2022-09-29T11:36:36;4.65;;;1.23;;
19312;SDS011;9791;50.820;4.406;2022-09-29T11:57:46;2.60;;;1.00;;
19312;SDS011;9791;50.820;4.406;2022-09-29T12:00:16;4.40;;;1.05;;
19312;SDS011;9791;50.820;4.406;2022-09-29T12:15:28;5.10;;;1.63;;
19312;SDS011;9791;50.820;4.406;2022-09-29T12:17:57;4.68;;;2.03;;
19312;SDS011;9791;50.820;4.406;2022-09-29T12:20:25;4.95;;;1.65;;
19312;SDS011;9791;50.820;4.406;2022-09-29T12:22:52;8.63;;;2.10;;
19312;SDS011;9791;50.820;4.406;2022-09-29T12:25:20;4.38;;;1.70;;
19312;SDS011;9791;50.820;4.406;2022-09-29T12:27:49;5.72;;;1.45;;
19312;SDS011;9791;50.820;4.406;2022-09-29T12:30:26;4.75;;;1.27;;
19312;SDS011;9791;50.820;4.406;2022-09-29T12:33:01;2.85;;;1.08;;
19312;SDS011;9791;50.820;4.406;2022-09-29T12:35:33;3.38;;;1.05;;
19312;SDS011;9791;50.820;4.406;2022-09-29T12:38:18;4.35;;;1.20;;
19312;SDS011;9791;50.820;4.406;2022-09-29T12:40:53;5.25;;;1.33;;
19312;SDS011;9791;50.820;4.406;2022-09-29T12:43:28;2.38;;;0.80;;
19312;SDS011;9791;50.820;4.406;2022-09-29T12:46:31;4.45;;;1.05;;
19312;SDS011;9791;50.820;4.406;2022-09-29T12:51:22;2.53;;;1.00;;
19312;SDS011;9791;50.820;4.406;2022-09-29T12:53:54;4.15;;;1.17;;
19312;SDS011;9791;50.820;4.406;2022-09-29T12:56:23;5.25;;;1.10;;
19312;SDS011;9791;50.820;4.406;2022-09-29T12:58:55;3.85;;;1.15;;
19312;SDS011;9791;50.820;4.406;2022-09-29T13:01:27;3.55;;;0.90;;
19312;SDS011;9791;50.820;4.406;2022-09-29T13:04:17;4.65;;;1.60;;
19312;SDS011;9791;50.820;4.406;2022-09-29T13:14:44;3.95;;;1.17;;
19312;SDS011;9791;50.820;4.406;2022-09-29T13:17:25;3.42;;;1.00;;
19312;SDS011;9791;50.820;4.406;2022-09-29T13:20:05;4.53;;;1.50;;
19312;SDS011;9791;50.820;4.406;2022-09-29T13:27:41;3.70;;;1.25;;
19312;SDS011;9791;50.820;4.406;2022-09-29T13:30:16;5.55;;;1.40;;
19312;SDS011;9791;50.820;4.406;2022-09-29T13:32:44;2.92;;;1.10;;
19312;SDS011;9791;50.820;4.406;2022-09-29T13:35:15;2.72;;;1.23;;
19312;SDS011;9791;50.820;4.406;2022-09-29T13:37:51;1.90;;;0.93;;
19312;SDS011;9791;50.820;4.406;2022-09-29T13:40:25;2.60;;;1.05;;
19312;SDS011;9791;50.820;4.406;2022-09-29T13:42:55;3.20;;;1.17;;
19312;SDS011;9791;50.820;4.406;2022-09-29T13:47:52;4.38;;;1.38;;
19312;SDS011;9791;50.820;4.406;2022-09-29T13:55:48;3.05;;;1.30;;
19312;SDS011;9791;50.820;4.406;2022-09-29T14:00:53;2.67;;;1.00;;
19312;SDS011;9791;50.820;4.406;2022-09-29T14:03:24;3.80;;;1.20;;
19312;SDS011;9791;50.820;4.406;2022-09-29T14:05:52;3.67;;;1.20;;
19312;SDS011;9791;50.820;4.406;2022-09-29T14:08:19;3.63;;;1.42;;
19312;SDS011;9791;50.820;4.406;2022-09-29T14:10:49;4.70;;;1.55;;
19312;SDS011;9791;50.820;4.406;2022-09-29T14:13:21;4.10;;;1.50;;
19312;SDS011;9791;50.820;4.406;2022-09-29T14:15:51;2.90;;;1.25;;
19312;SDS011;9791;50.820;4.406;2022-09-29T14:21:02;4.60;;;1.30;;
19312;SDS011;9791;50.820;4.406;2022-09-29T14:28:55;3.78;;;1.10;;
19312;SDS011;9791;50.820;4.406;2022-09-29T14:31:21;3.30;;;1.30;;
19312;SDS011;9791;50.820;4.406;2022-09-29T14:33:48;3.97;;;1.20;;
19312;SDS011;9791;50.820;4.406;2022-09-29T14:36:18;2.67;;;1.20;;
19312;SDS011;9791;50.820;4.406;2022-09-29T14:38:45;3.80;;;1.13;;
19312;SDS011;9791;50.820;4.406;2022-09-29T14:41:28;3.58;;;1.08;;
19312;SDS011;9791;50.820;4.406;2022-09-29T15:00:13;1.95;;;0.90;;
19312;SDS011;9791;50.820;4.406;2022-09-29T15:02:47;3.17;;;1.25;;
19312;SDS011;9791;50.820;4.406;2022-09-29T15:05:27;3.42;;;1.17;;
19312;SDS011;9791;50.820;4.406;2022-09-29T15:07:53;3.80;;;1.38;;
19312;SDS011;9791;50.820;4.406;2022-09-29T15:12:47;4.20;;;1.50;;
19312;SDS011;9791;50.820;4.406;2022-09-29T15:15:27;4.18;;;1.50;;
19312;SDS011;9791;50.820;4.406;2022-09-29T15:17:55;3.75;;;1.38;;
19312;SDS011;9791;50.820;4.406;2022-09-29T15:20:32;5.22;;;1.42;;
19312;SDS011;9791;50.820;4.406;2022-09-29T15:27:54;4.90;;;1.70;;
19312;SDS011;9791;50.820;4.406;2022-09-29T15:30:21;4.05;;;1.30;;
19312;SDS011;9791;50.820;4.406;2022-09-29T15:32:47;4.35;;;1.50;;
19312;SDS011;9791;50.820;4.406;2022-09-29T15:35:15;5.22;;;1.58;;
19312;SDS011;9791;50.820;4.406;2022-09-29T15:40:15;3.55;;;1.33;;
19312;SDS011;9791;50.820;4.406;2022-09-29T15:42:41;3.75;;;1.40;;
19312;SDS011;9791;50.820;4.406;2022-09-29T15:45:08;4.00;;;1.58;;
19312;SDS011;9791;50.820;4.406;2022-09-29T15:47:40;3.38;;;1.30;;
19312;SDS011;9791;50.820;4.406;2022-09-29T15:52:44;5.88;;;1.92;;
19312;SDS011;9791;50.820;4.406;2022-09-29T15:55:14;5.40;;;2.13;;
19312;SDS011;9791;50.820;4.406;2022-09-29T15:57:45;5.22;;;1.67;;
19312;SDS011;9791;50.820;4.406;2022-09-29T16:02:50;6.78;;;2.20;;
19312;SDS011;9791;50.820;4.406;2022-09-29T16:05:18;5.63;;;1.80;;
19312;SDS011;9791;50.820;4.406;2022-09-29T16:07:49;5.00;;;1.80;;
19312;SDS011;9791;50.820;4.406;2022-09-29T16:10:18;5.10;;;2.10;;
19312;SDS011;9791;50.820;4.406;2022-09-29T16:15:22;4.93;;;2.20;;
19312;SDS011;9791;50.820;4.406;2022-09-29T16:17:49;6.82;;;2.25;;
19312;SDS011;9791;50.820;4.406;2022-09-29T16:20:18;6.50;;;2.78;;
19312;SDS011;9791;50.820;4.406;2022-09-29T16:22:50;6.13;;;2.28;;
19312;SDS011;9791;50.820;4.406;2022-09-29T16:25:22;5.80;;;2.17;;
19312;SDS011;9791;50.820;4.406;2022-09-29T16:27:55;5.50;;;2.28;;
19312;SDS011;9791;50.820;4.406;2022-09-29T16:30:24;3.90;;;1.80;;
19312;SDS011;9791;50.820;4.406;2022-09-29T16:33:09;5.07;;;2.00;;
19312;SDS011;9791;50.820;4.406;2022-09-29T16:38:09;4.10;;;2.17;;
19312;SDS011;9791;50.820;4.406;2022-09-29T16:40:38;6.25;;;1.90;;
19312;SDS011;9791;50.820;4.406;2022-09-29T16:43:04;6.05;;;1.95;;
19312;SDS011;9791;50.820;4.406;2022-09-29T16:45:30;5.97;;;2.20;;
19312;SDS011;9791;50.820;4.406;2022-09-29T16:47:56;5.63;;;2.10;;
19312;SDS011;9791;50.820;4.406;2022-09-29T16:50:23;6.40;;;1.73;;
19312;SDS011;9791;50.820;4.406;2022-09-29T16:52:50;6.72;;;1.80;;
19312;SDS011;9791;50.820;4.406;2022-09-29T16:57:58;6.68;;;2.00;;
19312;SDS011;9791;50.820;4.406;2022-09-29T17:00:26;5.93;;;1.90;;
19312;SDS011;9791;50.820;4.406;2022-09-29T17:02:53;6.25;;;2.70;;
19312;SDS011;9791;50.820;4.406;2022-09-29T17:05:19;6.70;;;2.72;;
19312;SDS011;9791;50.820;4.406;2022-09-29T17:07:46;5.32;;;2.00;;
19312;SDS011;9791;50.820;4.406;2022-09-29T17:10:16;6.57;;;2.03;;
19312;SDS011;9791;50.820;4.406;2022-09-29T17:12:43;6.95;;;2.33;;
19312;SDS011;9791;50.820;4.406;2022-09-29T17:15:12;5.32;;;2.13;;
19312;SDS011;9791;50.820;4.406;2022-09-29T17:17:38;4.90;;;1.95;;
19312;SDS011;9791;50.820;4.406;2022-09-29T17:20:12;4.40;;;2.15;;
19312;SDS011;9791;50.820;4.406;2022-09-29T17:22:38;5.43;;;2.20;;
19312;SDS011;9791;50.820;4.406;2022-09-29T17:25:04;8.18;;;2.60;;
19312;SDS011;9791;50.820;4.406;2022-09-29T17:27:30;4.95;;;2.47;;
19312;SDS011;9791;50.820;4.406;2022-09-29T17:30:16;4.90;;;2.50;;
19312;SDS011;9791;50.820;4.406;2022-09-29T17:32:44;5.88;;;2.63;;
19312;SDS011;9791;50.820;4.406;2022-09-29T17:35:14;5.82;;;2.25;;
19312;SDS011;9791;50.820;4.406;2022-09-29T17:37:42;5.60;;;2.17;;
19312;SDS011;9791;50.820;4.406;2022-09-29T17:40:21;4.65;;;2.15;;
19312;SDS011;9791;50.820;4.406;2022-09-29T17:42:48;5.47;;;2.15;;
19312;SDS011;9791;50.820;4.406;2022-09-29T17:45:15;5.97;;;2.50;;
19312;SDS011;9791;50.820;4.406;2022-09-29T17:47:42;5.05;;;2.20;;
19312;SDS011;9791;50.820;4.406;2022-09-29T17:50:16;8.95;;;3.63;;
19312;SDS011;9791;50.820;4.406;2022-09-29T17:52:43;6.45;;;3.55;;
19312;SDS011;9791;50.820;4.406;2022-09-29T17:55:09;5.97;;;2.55;;
19312;SDS011;9791;50.820;4.406;2022-09-29T17:57:36;6.03;;;2.65;;
19312;SDS011;9791;50.820;4.406;2022-09-29T18:00:10;7.65;;;3.08;;
19312;SDS011;9791;50.820;4.406;2022-09-29T18:02:38;5.93;;;2.75;;
19312;SDS011;9791;50.820;4.406;2022-09-29T18:05:04;5.88;;;2.88;;